»·PEaware :: DFGCW KRKS-KSLC

DFGCW :: KRKS-KSLC

FLIGHT INFORMATION

Flight Status: Arrived
Operator: Unknown
More flights by this operator :: More flights under this callsign
Pilot: Klaus A. (15485)
Aircraft: PILATUS PC-12 EAGLE
(PC12)
More flights by this aircraft type
Origin: KRKS Rock Springs-Sweetwater
United States
Destination: KSLC Salt Lake City Intl
United States
More flights between these airports :: More routes between these airports
Route: OCS LHO4
File this flight plan on PilotEdge
Remarks: Departure via ODP RWY 27
Altitude:
(Current/Filed)
20,000ft
Speed:
(Current/Filed)
230kts
Departed: 15-Apr-19 08:28 AM
Arrived: 15-Apr-19 09:49 AM
Distance/Time
Traveled:
139nm/1:20
Distance/Time
To Go:
Arrived

Flight Plot

Page will automatically refresh every two minutes.

Flight plan parsing failed; only flown route is shown


Map Options




Map Legend


Flown Route
Filed Route
Departure Airport
Arrival Airport
Navaid (VOR, NDB)
Fix

Horizontal Profiles

Position Reports

Time Latitude Longitude Heading Altitude Ground
Speed
15-Apr-19 08:02 41.598998 -109.063749 313 6764ft 0kts
15-Apr-19 08:03 41.598998 -109.063749 313 6764ft 0kts
15-Apr-19 08:04 41.598998 -109.063749 313 6764ft 0kts
15-Apr-19 08:05 41.598998 -109.063749 313 6764ft 0kts
15-Apr-19 08:06 41.598998 -109.063749 313 6764ft 0kts
15-Apr-19 08:07 41.598998 -109.063749 313 6764ft 0kts
15-Apr-19 08:08 41.598999 -109.063749 313 6765ft 0kts
15-Apr-19 08:09 41.598999 -109.063749 313 6765ft 0kts
15-Apr-19 08:10 41.598999 -109.063749 313 6765ft 0kts
15-Apr-19 08:11 41.598999 -109.063749 313 6765ft 0kts
15-Apr-19 08:12 41.598999 -109.063749 313 6765ft 0kts
15-Apr-19 08:13 41.598999 -109.063749 313 6765ft 0kts
15-Apr-19 08:14 41.598999 -109.063749 313 6765ft 0kts
15-Apr-19 08:15 41.598999 -109.063749 313 6765ft 0kts
15-Apr-19 08:16 41.598999 -109.063749 313 6765ft 0kts
15-Apr-19 08:17 41.598753 -109.064270 223 6765ft 4kts
15-Apr-19 08:18 41.596754 -109.067518 195 6765ft 18kts
15-Apr-19 08:19 41.595744 -109.064783 108 6765ft 13kts
15-Apr-19 08:20 41.593744 -109.053504 103 6765ft 36kts
15-Apr-19 08:21 41.592357 -109.046661 164 6765ft 0kts
15-Apr-19 08:22 41.592357 -109.046661 164 6765ft 0kts
15-Apr-19 08:23 41.592357 -109.046661 164 6765ft 0kts
15-Apr-19 08:24 41.592357 -109.046661 164 6765ft 0kts
15-Apr-19 08:25 41.592357 -109.046661 164 6765ft 0kts
15-Apr-19 08:26 41.591517 -109.046959 245 6765ft 12kts
15-Apr-19 08:27 41.596668 -109.071919 283 7229ft 125kts
15-Apr-19 08:28 41.615012 -109.106181 353 9238ft 131kts
15-Apr-19 08:29 41.644867 -109.120930 313 10363ft 148kts
15-Apr-19 08:30 41.644008 -109.144853 158 11509ft 199kts
15-Apr-19 08:31 41.624338 -109.078586 130 12955ft 197kts
15-Apr-19 08:32 41.592638 -109.017608 123 14119ft 208kts
15-Apr-19 08:33 41.591311 -108.936252 91 15118ft 223kts
15-Apr-19 08:34 41.614738 -108.869606 347 16049ft 197kts
15-Apr-19 08:35 41.611916 -108.906000 213 16698ft 166kts
15-Apr-19 08:36 41.588175 -108.945389 273 17555ft 164kts
15-Apr-19 08:37 41.589431 -109.005496 263 18267ft 163kts
15-Apr-19 08:38 41.593017 -109.064686 265 19066ft 160kts
15-Apr-19 08:39 41.596809 -109.123578 270 19751ft 159kts
15-Apr-19 08:40 41.602443 -109.186442 269 19933ft 187kts
15-Apr-19 08:41 41.608250 -109.259508 270 19930ft 206kts
15-Apr-19 08:42 41.614063 -109.337145 270 19925ft 211kts
15-Apr-19 08:43 41.619697 -109.414134 270 19924ft 213kts
15-Apr-19 08:44 41.625402 -109.493241 270 19923ft 213kts
15-Apr-19 08:45 41.631057 -109.572366 270 19922ft 214kts
15-Apr-19 08:46 41.636579 -109.650480 269 19922ft 214kts
15-Apr-19 08:47 41.641055 -109.720153 269 19930ft 214kts
15-Apr-19 08:48 41.646427 -109.799333 269 19983ft 213kts
15-Apr-19 08:49 41.651803 -109.878245 269 19983ft 213kts
15-Apr-19 08:50 41.657193 -109.957746 269 19983ft 216kts
15-Apr-19 08:51 41.662606 -110.038221 269 19982ft 217kts
15-Apr-19 08:52 41.667989 -110.119248 269 19944ft 218kts
15-Apr-19 08:53 41.673302 -110.199973 269 19953ft 217kts
15-Apr-19 08:54 41.678406 -110.278404 269 19952ft 217kts
15-Apr-19 08:55 41.683601 -110.359237 269 19952ft 218kts
15-Apr-19 08:56 41.688725 -110.439821 269 19951ft 218kts
15-Apr-19 08:58 41.693811 -110.520660 269 19950ft 217kts
15-Apr-19 08:59 41.698867 -110.601721 269 19950ft 217kts
15-Apr-19 09:00 41.703633 -110.682405 267 19954ft 217kts
15-Apr-19 09:01 41.708334 -110.763322 268 19955ft 219kts
15-Apr-19 09:02 41.716924 -110.844956 276 19957ft 225kts
15-Apr-19 09:03 41.732686 -110.926298 276 19956ft 226kts
15-Apr-19 09:04 41.739240 -111.008121 267 19955ft 220kts
15-Apr-19 09:05 41.743992 -111.090495 268 19955ft 221kts
15-Apr-19 09:06 41.748539 -111.171011 268 19946ft 217kts
15-Apr-19 09:07 41.753098 -111.251755 269 19943ft 217kts
15-Apr-19 09:08 41.757620 -111.332470 269 19943ft 217kts
15-Apr-19 09:09 41.762095 -111.413012 269 19943ft 217kts
15-Apr-19 09:10 41.766479 -111.493477 269 19942ft 217kts
15-Apr-19 09:11 41.770801 -111.573939 269 19941ft 216kts
15-Apr-19 09:12 41.775072 -111.655113 269 19391ft 221kts
15-Apr-19 09:13 41.778902 -111.737044 270 18298ft 218kts
15-Apr-19 09:14 41.783110 -111.817852 270 17219ft 218kts
15-Apr-19 09:15 41.787208 -111.899095 270 16144ft 220kts
15-Apr-19 09:15 41.790645 -111.968280 270 15242ft 225kts
15-Apr-19 09:17 41.770300 -112.055871 222 14025ft 230kts
15-Apr-19 09:18 41.710265 -112.063616 161 14000ft 231kts
15-Apr-19 09:19 41.655986 -112.030897 190 13994ft 197kts
15-Apr-19 09:19 41.610889 -112.037917 189 14007ft 199kts
15-Apr-19 09:20 41.555518 -112.042551 194 14005ft 198kts
15-Apr-19 09:22 41.491425 -112.053538 194 14004ft 199kts
15-Apr-19 09:22 41.445683 -112.061223 194 14004ft 199kts
15-Apr-19 09:23 41.390689 -112.070438 194 14004ft 199kts
15-Apr-19 09:25 41.327782 -112.080923 194 13992ft 189kts
15-Apr-19 09:25 41.284780 -112.088113 195 13994ft 186kts
15-Apr-19 09:26 41.233644 -112.096651 193 13994ft 184kts
15-Apr-19 09:27 41.184119 -112.110387 204 13994ft 180kts
15-Apr-19 09:28 41.135354 -112.127732 199 13994ft 181kts
15-Apr-19 09:29 41.085774 -112.144534 199 13598ft 196kts
15-Apr-19 09:30 41.027529 -112.135065 170 12514ft 226kts
15-Apr-19 09:31 40.967313 -112.114207 170 11393ft 214kts
15-Apr-19 09:32 40.914361 -112.095525 170 10991ft 181kts
15-Apr-19 09:33 40.867207 -112.078389 173 10993ft 172kts
15-Apr-19 09:34 40.821779 -112.067001 175 10272ft 156kts
15-Apr-19 09:35 40.778024 -112.056248 175 9416ft 175kts
15-Apr-19 09:36 40.724830 -112.045331 175 8981ft 190kts
15-Apr-19 09:37 40.673012 -112.035616 175 8070ft 187kts
15-Apr-19 09:38 40.626047 -112.026702 175 8015ft 162kts
15-Apr-19 09:39 40.580349 -112.017887 175 8080ft 154kts
15-Apr-19 09:40 40.557684 -111.978390 79 7332ft 154kts
15-Apr-19 09:41 40.585798 -111.945283 20 7017ft 138kts
15-Apr-19 09:42 40.623038 -111.945563 351 6516ft 135kts
15-Apr-19 09:43 40.659572 -111.949779 351 6097ft 124kts
15-Apr-19 09:44 40.692827 -111.953623 352 5847ft 114kts
15-Apr-19 09:45 40.724040 -111.957183 355 5244ft 112kts
15-Apr-19 09:46 40.753626 -111.960693 354 4659ft 97kts
15-Apr-19 09:47 40.779831 -111.962055 0 4234ft 80kts
15-Apr-19 09:48 40.788782 -111.960641 26 4233ft 0kts
15-Apr-19 09:49 40.788782 -111.960641 26 4233ft 0kts
15-Apr-19 09:50 40.788898 -111.960583 23 4233ft 1kts
15-Apr-19 09:51 40.783503 -111.959990 179 4233ft 32kts
15-Apr-19 09:52 40.778655 -111.958958 91 4233ft 8kts
15-Apr-19 09:53 40.778832 -111.958360 2 4233ft 0kts
15-Apr-19 09:54 40.778832 -111.958360 2 4233ft 0kts
15-Apr-19 09:55 40.778832 -111.958360 2 4233ft 0kts

Navigation Log

Ident Type
Flight plan parsing failed, navigation log unavailable